Time;durP1;ratioP1;P1;durP2;ratioP2;P2;SDS_P1;SDS_P2;PMS_P1;PMS_P2;Temp;Humidity;BMP_temperature;BMP_pressure;BME280_temperature;BME280_humidity;BME280_pressure;Samples;Min_cycle;Max_cycle;Signal;HPM_P1;HPM_P2
2023/03/15 00:01:15;;;;;;;1.48;0.90;;;7.20;99.90;;;;;;4981446;28;20051;-77
2023/03/15 00:03:43;;;;;;;1.10;0.88;;;7.10;99.90;;;;;;4980472;28;20569;-77
2023/03/15 00:06:10;;;;;;;0.95;0.88;;;7.10;99.90;;;;;;4985860;28;20047;-77
2023/03/15 00:08:38;;;;;;;1.08;0.90;;;7.10;99.90;;;;;;4982728;28;20147;-77
2023/03/15 00:11:05;;;;;;;3.08;1.30;;;7.10;99.90;;;;;;4990825;28;20050;-77
2023/03/15 00:13:32;;;;;;;1.15;1.02;;;7.10;99.90;;;;;;4989069;28;20050;-77
2023/03/15 00:16:02;;;;;;;2.45;1.27;;;7.10;99.90;;;;;;4987355;28;20050;-77
2023/03/15 00:18:29;;;;;;;2.42;1.10;;;7.10;99.90;;;;;;4988450;28;20046;-77
2023/03/15 00:20:56;;;;;;;1.20;0.90;;;7.20;99.90;;;;;;4987525;28;20054;-77
2023/03/15 00:23:23;;;;;;;4.28;1.38;;;7.10;99.90;;;;;;4986013;28;20069;-77
2023/03/15 00:25:51;;;;;;;3.08;1.00;;;7.10;99.90;;;;;;4990079;28;20050;-77
2023/03/15 00:28:18;;;;;;;3.75;1.00;;;7.10;99.90;;;;;;4984088;28;20046;-77
2023/03/15 00:30:45;;;;;;;1.52;1.08;;;7.10;99.90;;;;;;4985433;28;20410;-77
2023/03/15 00:33:13;;;;;;;1.75;1.00;;;7.10;99.90;;;;;;4982178;28;20046;-76
2023/03/15 00:35:42;;;;;;;1.90;1.33;;;7.10;99.90;;;;;;4983140;28;20050;-77
2023/03/15 00:38:09;;;;;;;2.75;1.40;;;7.00;99.90;;;;;;4980448;28;20520;-77
2023/03/15 00:40:36;;;;;;;3.63;1.50;;;6.90;99.90;;;;;;4981556;28;20499;-77
2023/03/15 00:43:04;;;;;;;2.35;1.58;;;6.90;99.90;;;;;;4980834;28;20046;-77
2023/03/15 00:45:31;;;;;;;1.90;1.00;;;6.70;99.90;;;;;;4982356;28;20562;-76
2023/03/15 00:47:58;;;;;;;1.30;1.10;;;6.70;99.90;;;;;;4985475;28;20194;-77
2023/03/15 00:50:25;;;;;;;1.48;1.20;;;6.60;99.90;;;;;;4983132;28;20039;-76
2023/03/15 00:52:52;;;;;;;1.42;1.30;;;6.50;99.90;;;;;;4978743;28;20502;-76
2023/03/15 00:55:20;;;;;;;2.85;1.33;;;6.50;99.90;;;;;;4982064;28;20052;-77
2023/03/15 00:57:47;;;;;;;1.83;1.35;;;6.40;99.90;;;;;;4991080;28;20053;-77
2023/03/15 01:00:23;;;;;;;4.88;2.28;;;6.40;99.90;;;;;;4985791;28;20043;-77
2023/03/15 01:02:53;;;;;;;3.72;1.70;;;6.30;99.90;;;;;;4986871;28;20121;-77
2023/03/15 01:05:21;;;;;;;6.03;2.20;;;6.20;99.90;;;;;;4983151;28;20074;-77
2023/03/15 01:07:48;;;;;;;4.28;1.95;;;6.20;99.90;;;;;;4985431;28;20418;-77
2023/03/15 01:10:15;;;;;;;2.67;1.95;;;6.00;99.90;;;;;;4982748;28;20448;-76
2023/03/15 01:12:42;;;;;;;3.60;2.03;;;5.90;99.90;;;;;;4984440;28;20046;-76
2023/03/15 01:15:12;;;;;;;2.85;1.50;;;5.80;99.90;;;;;;4979659;28;20047;-77
2023/03/15 01:17:39;;;;;;;3.08;1.45;;;5.70;99.90;;;;;;4982748;28;20085;-77
2023/03/15 01:20:07;;;;;;;1.50;1.15;;;5.60;99.90;;;;;;4979112;28;20082;-77
2023/03/15 01:22:34;;;;;;;1.08;0.90;;;5.40;99.90;;;;;;4983816;28;20126;-76
2023/03/15 01:25:00;;;;;;;2.78;1.17;;;5.40;99.90;;;;;;4976626;28;20062;-77
2023/03/15 01:27:27;;;;;;;1.50;1.20;;;5.30;99.90;;;;;;4983616;28;20062;-77
2023/03/15 01:29:54;;;;;;;1.90;1.02;;;5.30;99.90;;;;;;4984489;28;20049;-77
2023/03/15 01:32:21;;;;;;;0.98;0.93;;;5.30;99.90;;;;;;4983067;28;20417;-76
2023/03/15 01:34:47;;;;;;;2.35;1.10;;;5.30;99.90;;;;;;4976981;28;20085;-77
2023/03/15 01:37:14;;;;;;;2.97;1.20;;;5.20;99.90;;;;;;4984026;28;20449;-76
2023/03/15 01:39:41;;;;;;;1.92;1.00;;;5.20;99.90;;;;;;4982052;28;20046;-76
2023/03/15 01:42:09;;;;;;;3.38;1.08;;;5.10;99.90;;;;;;4981805;28;20061;-77
2023/03/15 01:44:56;;;;;;;1.23;1.08;;;5.10;99.90;;;;;;4990615;28;20049;-77
2023/03/15 01:47:25;;;;;;;2.20;1.30;;;5.10;99.90;;;;;;4981499;28;20050;-77
2023/03/15 01:50:05;;;;;;;2.33;0.90;;;5.10;99.90;;;;;;4987765;28;20049;-75
2023/03/15 01:52:36;;;;;;;1.25;0.90;;;5.10;99.90;;;;;;4986976;28;20064;-77
2023/03/15 01:55:14;;;;;;;1.48;0.90;;;5.10;99.90;;;;;;4988286;28;20042;-76
2023/03/15 01:57:54;;;;;;;1.50;0.88;;;5.00;99.90;;;;;;4990115;28;20129;-77
2023/03/15 02:00:21;;;;;;;2.25;1.10;;;5.00;99.90;;;;;;4981659;28;20042;-76
2023/03/15 02:02:48;;;;;;;1.88;1.10;;;4.90;99.90;;;;;;4982585;28;20050;-76
2023/03/15 02:05:20;;;;;;;1.48;1.15;;;4.90;99.90;;;;;;4984938;28;20061;-77
2023/03/15 02:07:53;;;;;;;0.93;0.90;;;4.90;99.90;;;;;;4976966;28;20082;-75
2023/03/15 02:10:36;;;;;;;2.65;1.10;;;4.90;99.90;;;;;;4985104;28;20474;-76
2023/03/15 02:13:04;;;;;;;3.42;1.27;;;5.00;99.90;;;;;;4979333;28;20050;-76
2023/03/15 02:15:31;;;;;;;1.13;1.02;;;5.00;99.90;;;;;;4986073;28;20051;-76
2023/03/15 02:17:57;;;;;;;2.20;1.20;;;5.00;99.90;;;;;;4975885;28;20066;-77
2023/03/15 02:20:37;;;;;;;4.28;1.20;;;5.00;99.90;;;;;;4985717;28;20142;-76
2023/03/15 02:23:11;;;;;;;2.22;1.17;;;5.00;99.90;;;;;;4981083;28;20046;-76
2023/03/15 02:26:04;;;;;;;2.00;1.00;;;5.10;99.90;;;;;;4989255;28;20061;-77
2023/03/15 02:28:31;;;;;;;2.45;0.90;;;5.00;99.90;;;;;;4987053;28;20526;-77
2023/03/15 02:30:58;;;;;;;1.13;1.02;;;5.00;99.90;;;;;;4990637;28;20042;-77
2023/03/15 02:33:27;;;;;;;1.30;1.15;;;4.90;99.90;;;;;;4990205;28;20046;-77
2023/03/15 02:36:04;;;;;;;0.98;0.90;;;4.90;99.90;;;;;;4987277;28;20490;-77
2023/03/15 02:38:31;;;;;;;2.20;0.90;;;4.90;99.90;;;;;;4993895;28;20057;-77
2023/03/15 02:40:58;;;;;;;0.93;0.85;;;4.80;99.90;;;;;;4986275;28;20057;-77
2023/03/15 02:43:28;;;;;;;1.45;1.10;;;4.80;99.90;;;;;;4985152;28;20051;-77
2023/03/15 02:45:55;;;;;;;2.67;1.10;;;4.70;99.90;;;;;;4983146;28;20621;-76
2023/03/15 02:48:22;;;;;;;2.58;1.08;;;4.70;99.90;;;;;;4992100;28;20578;-78
2023/03/15 02:50:49;;;;;;;1.30;1.20;;;4.60;99.90;;;;;;4983152;28;20498;-77
2023/03/15 02:53:15;;;;;;;1.88;0.85;;;4.60;99.90;;;;;;4984637;28;20049;-77
2023/03/15 02:55:42;;;;;;;3.17;1.25;;;4.60;99.90;;;;;;4980827;28;20049;-77
2023/03/15 02:58:09;;;;;;;0.95;0.77;;;4.60;99.90;;;;;;4984827;28;20054;-76
2023/03/15 03:00:36;;;;;;;1.67;1.00;;;4.60;99.90;;;;;;4994111;28;20049;-76
2023/03/15 03:03:03;;;;;;;2.75;1.17;;;4.60;99.90;;;;;;4987243;28;20058;-77
2023/03/15 03:05:30;;;;;;;1.52;1.00;;;4.50;99.90;;;;;;4992971;28;20046;-77
2023/03/15 03:07:57;;;;;;;2.03;1.10;;;4.50;99.90;;;;;;4989828;28;20053;-77
2023/03/15 03:10:24;;;;;;;2.38;0.90;;;4.50;99.90;;;;;;4979965;28;20145;-77
2023/03/15 03:12:52;;;;;;;2.08;1.00;;;4.40;99.90;;;;;;4994143;28;20042;-76
2023/03/15 03:15:20;;;;;;;1.30;0.90;;;4.30;99.90;;;;;;4992806;28;20085;-76
2023/03/15 03:17:47;;;;;;;1.58;1.00;;;4.30;99.90;;;;;;4990524;28;20048;-77
2023/03/15 03:20:14;;;;;;;0.95;0.90;;;4.30;99.90;;;;;;4987685;28;20066;-76
2023/03/15 03:22:43;;;;;;;3.42;1.00;;;4.30;99.90;;;;;;4987020;28;20125;-77
2023/03/15 03:25:11;;;;;;;0.90;0.90;;;4.20;99.90;;;;;;4987280;28;20058;-76
2023/03/15 03:27:39;;;;;;;1.45;0.88;;;4.20;99.90;;;;;;4983541;28;20741;-77
2023/03/15 03:30:09;;;;;;;1.35;1.05;;;4.20;99.90;;;;;;4986104;28;20090;-76
2023/03/15 03:32:36;;;;;;;1.38;0.95;;;4.20;99.90;;;;;;4984240;28;20531;-76
2023/03/15 03:35:03;;;;;;;1.33;0.70;;;4.20;99.90;;;;;;4983695;28;20047;-77
2023/03/15 03:37:29;;;;;;;1.60;0.88;;;4.10;99.90;;;;;;4982155;28;20068;-77
2023/03/15 03:39:56;;;;;;;2.95;0.95;;;4.10;99.90;;;;;;4989960;28;20049;-76
2023/03/15 03:42:23;;;;;;;4.53;0.90;;;4.00;99.90;;;;;;4981170;28;20053;-77
2023/03/15 03:44:50;;;;;;;3.42;0.85;;;4.00;99.90;;;;;;4983405;28;20517;-76
2023/03/15 03:47:17;;;;;;;1.80;0.73;;;3.90;99.90;;;;;;4980181;28;20047;-77
2023/03/15 03:49:43;;;;;;;2.25;1.20;;;3.90;99.90;;;;;;4984743;28;20066;-77
2023/03/15 03:52:10;;;;;;;2.42;0.88;;;3.80;99.90;;;;;;4981497;28;20049;-77
2023/03/15 03:54:37;;;;;;;4.70;0.95;;;3.70;99.90;;;;;;4991950;28;20055;-77
2023/03/15 03:57:04;;;;;;;2.50;0.90;;;3.70;99.90;;;;;;4988644;28;20046;-76
2023/03/15 03:59:30;;;;;;;7.93;0.93;;;3.70;99.90;;;;;;4986691;28;20050;-76
2023/03/15 04:01:57;;;;;;;4.55;0.90;;;3.70;99.90;;;;;;4988624;28;20042;-77
2023/03/15 04:04:25;;;;;;;3.78;1.33;;;3.70;99.90;;;;;;4983401;28;20514;-77
2023/03/15 04:06:53;;;;;;;1.52;1.10;;;3.70;99.90;;;;;;4986247;28;20130;-76
2023/03/15 04:09:20;;;;;;;2.40;1.30;;;3.80;99.90;;;;;;4983452;28;20039;-78
2023/03/15 04:11:47;;;;;;;4.38;1.05;;;3.70;99.90;;;;;;4983592;28;20038;-77
2023/03/15 04:14:14;;;;;;;1.27;0.90;;;3.70;99.90;;;;;;4983703;28;20051;-77
2023/03/15 04:16:41;;;;;;;3.30;0.70;;;3.70;99.90;;;;;;4983233;28;20105;-76
2023/03/15 04:19:08;;;;;;;4.15;1.00;;;3.60;99.90;;;;;;4982928;28;20090;-77
2023/03/15 04:21:35;;;;;;;2.88;0.82;;;3.70;99.90;;;;;;4995041;28;20030;-77
2023/03/15 04:24:02;;;;;;;4.15;0.90;;;3.60;99.90;;;;;;5011640;28;20042;-76
2023/03/15 04:26:29;;;;;;;1.55;0.90;;;3.60;99.90;;;;;;5009816;28;20091;-77
2023/03/15 04:28:57;;;;;;;4.88;0.90;;;3.60;99.90;;;;;;5014825;28;20058;-74
2023/03/15 04:31:27;;;;;;;2.65;0.70;;;3.50;99.90;;;;;;5007673;28;20033;-75
2023/03/15 04:33:55;;;;;;;;;;;3.40;99.90;;;;;;4985397;28;20503;-75
2023/03/15 04:36:22;;;;;;;4.40;0.85;;;3.40;99.90;;;;;;4976550;28;19929;-75
2023/03/15 04:38:49;;;;;;;2.25;0.95;;;3.40;99.90;;;;;;4973725;28;20053;-76
2023/03/15 04:41:17;;;;;;;1.42;0.90;;;3.40;99.90;;;;;;4978290;28;20181;-75
2023/03/15 04:43:44;;;;;;;1.30;0.82;;;3.40;99.90;;;;;;4985858;28;20046;-76
2023/03/15 04:46:11;;;;;;;2.78;0.88;;;3.40;99.90;;;;;;4987541;28;20490;-74
2023/03/15 04:48:38;;;;;;;1.08;0.70;;;3.40;99.90;;;;;;4985753;28;20521;-77
2023/03/15 04:51:04;;;;;;;1.05;0.95;;;3.40;99.90;;;;;;4986564;28;20042;-75
2023/03/15 04:53:31;;;;;;;3.00;0.82;;;3.40;99.90;;;;;;4981891;28;20562;-75
2023/03/15 04:55:58;;;;;;;0.85;0.80;;;3.40;99.90;;;;;;4989761;28;20049;-77
2023/03/15 04:58:25;;;;;;;2.78;0.80;;;3.30;99.90;;;;;;4984121;28;20046;-76
2023/03/15 05:00:52;;;;;;;3.38;0.93;;;3.30;99.90;;;;;;4990306;28;20056;-77
2023/03/15 05:03:19;;;;;;;1.13;0.88;;;3.30;99.90;;;;;;4992887;28;20106;-78
2023/03/15 05:05:46;;;;;;;0.80;0.80;;;3.30;99.90;;;;;;4987612;28;20093;-78
2023/03/15 05:08:13;;;;;;;6.18;1.48;;;3.30;99.90;;;;;;4992153;28;20058;-76
2023/03/15 05:10:40;;;;;;;1.83;0.90;;;3.30;99.90;;;;;;4987071;28;20050;-78
2023/03/15 05:13:06;;;;;;;1.88;1.13;;;3.20;99.90;;;;;;4978583;28;20069;-77
2023/03/15 05:15:33;;;;;;;2.05;1.30;;;3.20;99.90;;;;;;4985229;28;20042;-78
2023/03/15 05:18:00;;;;;;;2.80;0.85;;;3.20;99.90;;;;;;4980027;28;20047;-76
2023/03/15 05:20:26;;;;;;;2.03;1.20;;;3.20;99.90;;;;;;4987387;28;20042;-78
2023/03/15 05:22:53;;;;;;;1.90;1.00;;;3.20;99.90;;;;;;4981600;28;20054;-78
2023/03/15 05:25:20;;;;;;;3.45;1.42;;;3.20;99.90;;;;;;4986928;28;20054;-77
2023/03/15 05:27:46;;;;;;;2.85;1.42;;;3.20;99.90;;;;;;4991431;28;20054;-77
2023/03/15 05:30:15;;;;;;;2.70;1.42;;;3.10;99.90;;;;;;4989123;28;20050;-77
2023/03/15 05:32:43;;;;;;;1.15;1.05;;;3.10;99.90;;;;;;4990964;28;20498;-77
2023/03/15 05:35:12;;;;;;;3.35;1.10;;;3.10;99.90;;;;;;4988295;28;20046;-77
2023/03/15 05:37:39;;;;;;;2.10;1.05;;;3.10;99.90;;;;;;4989534;28;20054;-77
2023/03/15 05:40:07;;;;;;;2.40;1.80;;;3.10;99.90;;;;;;4982552;28;20057;-77
2023/03/15 05:42:34;;;;;;;4.68;1.65;;;3.10;99.90;;;;;;4984957;28;20479;-78
2023/03/15 05:45:01;;;;;;;2.10;1.45;;;3.10;99.90;;;;;;4982619;28;20060;-78
2023/03/15 05:47:27;;;;;;;7.30;1.23;;;3.00;99.90;;;;;;4983695;28;20055;-77
2023/03/15 05:49:54;;;;;;;2.65;1.42;;;3.00;99.90;;;;;;4990136;28;20046;-77
2023/03/15 05:52:21;;;;;;;1.50;1.20;;;3.00;99.90;;;;;;4982074;28;20049;-77
2023/03/15 05:54:47;;;;;;;3.00;1.10;;;3.00;99.90;;;;;;4992835;28;20046;-78
2023/03/15 05:57:14;;;;;;;1.40;1.20;;;3.00;99.90;;;;;;4981020;28;20418;-77
2023/03/15 05:59:41;;;;;;;1.20;1.10;;;2.90;99.90;;;;;;4983859;28;20536;-77
2023/03/15 06:02:08;;;;;;;6.03;1.98;;;3.00;99.90;;;;;;4981785;28;20047;-77
2023/03/15 06:04:36;;;;;;;2.42;1.38;;;3.00;99.90;;;;;;4984370;28;20533;-77
2023/03/15 06:07:03;;;;;;;5.10;1.60;;;2.90;99.90;;;;;;4981308;28;20062;-78
2023/03/15 06:09:30;;;;;;;4.57;1.98;;;2.90;99.90;;;;;;4985198;28;20051;-77
2023/03/15 06:11:57;;;;;;;4.30;1.70;;;2.90;99.90;;;;;;4984487;28;20039;-78
2023/03/15 06:14:25;;;;;;;5.18;2.15;;;2.90;99.90;;;;;;4988719;28;20038;-78
2023/03/15 06:16:52;;;;;;;6.32;2.35;;;2.90;99.90;;;;;;4986087;28;20564;-77
2023/03/15 06:19:20;;;;;;;7.30;3.35;;;2.90;99.90;;;;;;4986971;28;20042;-78
2023/03/15 06:21:47;;;;;;;7.82;4.28;;;3.00;99.90;;;;;;4987418;28;20466;-77
2023/03/15 06:24:14;;;;;;;6.10;3.15;;;3.00;99.90;;;;;;4985051;28;20054;-78
2023/03/15 06:26:40;;;;;;;10.13;3.08;;;3.00;99.90;;;;;;4987851;28;20482;-77
2023/03/15 06:29:07;;;;;;;4.72;2.97;;;3.00;99.90;;;;;;4983051;28;20063;-77
2023/03/15 06:31:34;;;;;;;7.25;3.50;;;3.10;99.90;;;;;;4984845;28;20042;-77
2023/03/15 06:34:01;;;;;;;5.15;3.53;;;3.00;99.90;;;;;;4981363;28;20395;-77
2023/03/15 06:36:27;;;;;;;8.27;3.60;;;3.00;99.90;;;;;;4991320;28;20038;-77
2023/03/15 06:38:54;;;;;;;8.35;4.00;;;3.00;99.90;;;;;;4979188;28;20046;-77
2023/03/15 06:41:21;;;;;;;7.57;3.70;;;3.10;99.90;;;;;;4989307;28;20065;-77
2023/03/15 06:43:47;;;;;;;3.92;3.22;;;3.10;99.90;;;;;;4987169;28;20050;-76
2023/03/15 06:46:14;;;;;;;7.18;3.72;;;3.10;99.90;;;;;;4983664;28;20050;-77
2023/03/15 06:48:41;;;;;;;6.55;3.85;;;3.20;99.90;;;;;;4979109;28;20054;-77
2023/03/15 06:51:08;;;;;;;8.02;3.38;;;3.20;99.90;;;;;;4985006;28;20134;-78
2023/03/15 06:53:34;;;;;;;8.13;4.13;;;3.20;99.90;;;;;;4979230;28;20043;-78
2023/03/15 06:56:01;;;;;;;6.22;3.80;;;3.20;99.90;;;;;;4985528;28;20043;-77
2023/03/15 06:58:28;;;;;;;4.43;3.38;;;3.30;99.90;;;;;;4991907;28;20046;-78
2023/03/15 07:00:55;;;;;;;8.80;4.55;;;3.30;99.90;;;;;;4986723;28;20043;-78
2023/03/15 07:03:22;;;;;;;6.68;3.83;;;3.30;99.90;;;;;;4988841;28;20047;-77
2023/03/15 07:05:51;;;;;;;5.60;3.13;;;3.30;99.90;;;;;;4991024;28;20142;-78
2023/03/15 07:08:19;;;;;;;5.22;3.05;;;3.30;99.90;;;;;;4986970;28;20039;-78
2023/03/15 07:10:47;;;;;;;5.63;3.38;;;3.40;99.90;;;;;;4985748;28;20042;-77
2023/03/15 07:13:14;;;;;;;5.78;3.22;;;3.40;99.90;;;;;;4988270;28;20133;-77
2023/03/15 07:15:41;;;;;;;4.22;3.17;;;3.50;99.90;;;;;;4986687;28;20058;-78
2023/03/15 07:18:07;;;;;;;9.07;3.05;;;3.60;99.90;;;;;;4986353;28;20130;-77
2023/03/15 07:20:34;;;;;;;3.83;2.70;;;3.60;99.90;;;;;;4986272;28;20057;-77
2023/03/15 07:23:03;;;;;;;4.28;2.40;;;3.70;99.90;;;;;;4985586;28;20057;-77
2023/03/15 07:25:30;;;;;;;6.80;2.95;;;3.70;99.90;;;;;;4985286;28;20047;-79
2023/03/15 07:27:57;;;;;;;4.68;2.65;;;3.70;99.90;;;;;;4984775;28;20053;-77
2023/03/15 07:30:23;;;;;;;3.92;2.40;;;3.70;99.90;;;;;;4985434;28;20046;-77
2023/03/15 07:32:50;;;;;;;3.17;2.20;;;3.80;99.90;;;;;;4983336;28;20125;-76
2023/03/15 07:35:17;;;;;;;6.20;2.65;;;3.80;99.90;;;;;;4986953;28;20043;-77
2023/03/15 07:37:44;;;;;;;3.10;2.13;;;3.90;99.90;;;;;;4988200;28;20049;-77
2023/03/15 07:40:12;;;;;;;3.80;2.00;;;3.90;99.90;;;;;;4986128;28;20046;-77
2023/03/15 07:42:39;;;;;;;4.30;2.35;;;3.90;99.90;;;;;;4992542;28;20062;-78
2023/03/15 07:45:06;;;;;;;6.18;3.53;;;4.00;99.90;;;;;;4993626;28;20125;-78
2023/03/15 07:47:34;;;;;;;6.25;2.53;;;4.00;99.90;;;;;;4991487;28;20052;-78
2023/03/15 07:50:01;;;;;;;3.38;1.83;;;4.10;99.90;;;;;;4995330;28;20049;-78
2023/03/15 07:52:27;;;;;;;4.15;2.10;;;4.10;99.90;;;;;;4989549;28;20043;-78
2023/03/15 07:54:54;;;;;;;3.35;1.88;;;4.10;99.90;;;;;;4987492;28;20125;-79
2023/03/15 07:57:21;;;;;;;4.15;1.95;;;4.20;99.90;;;;;;4986514;28;20045;-78
2023/03/15 07:59:48;;;;;;;4.18;2.13;;;4.20;99.90;;;;;;4988130;28;20046;-78
2023/03/15 08:02:14;;;;;;;2.75;1.90;;;4.20;99.90;;;;;;4986323;28;20519;-78
2023/03/15 08:04:41;;;;;;;2.92;1.90;;;4.30;99.90;;;;;;4994332;28;20065;-78
2023/03/15 08:07:08;;;;;;;3.53;1.92;;;4.30;99.90;;;;;;4986070;28;20511;-80
2023/03/15 08:09:34;;;;;;;2.95;1.88;;;4.40;99.90;;;;;;4979258;28;20050;-79
2023/03/15 08:12:01;;;;;;;2.30;1.65;;;4.40;99.90;;;;;;4981335;28;20046;-76
2023/03/15 08:14:30;;;;;;;7.32;2.83;;;4.40;99.90;;;;;;4977802;28;20053;-76
2023/03/15 08:16:57;;;;;;;2.60;2.00;;;4.40;99.90;;;;;;4997892;28;20053;-76
2023/03/15 08:19:23;;;;;;;3.13;1.77;;;4.50;99.90;;;;;;4982748;28;20056;-76
2023/03/15 08:21:52;;;;;;;2.40;1.63;;;4.50;99.90;;;;;;4980352;28;20133;-77
2023/03/15 08:24:20;;;;;;;3.90;1.50;;;4.60;99.90;;;;;;4987604;28;20062;-76
2023/03/15 08:26:47;;;;;;;2.75;1.80;;;4.60;99.90;;;;;;4987660;28;20261;-76
2023/03/15 08:29:14;;;;;;;5.22;1.45;;;4.70;99.90;;;;;;4988943;28;20046;-76
2023/03/15 08:31:41;;;;;;;1.55;1.33;;;4.70;99.90;;;;;;4985736;28;20660;-76
2023/03/15 08:34:08;;;;;;;3.33;1.77;;;4.70;99.90;;;;;;4985320;28;20043;-78
2023/03/15 08:36:35;;;;;;;4.20;1.58;;;4.80;99.90;;;;;;4985575;28;20042;-76
2023/03/15 08:39:04;;;;;;;1.58;1.33;;;4.90;99.90;;;;;;4985250;28;20050;-76
2023/03/15 08:41:31;;;;;;;3.15;1.67;;;4.90;99.90;;;;;;4990244;28;20121;-77
2023/03/15 08:43:57;;;;;;;2.72;1.33;;;4.90;99.90;;;;;;4984404;28;20038;-76
2023/03/15 08:46:25;;;;;;;2.03;1.27;;;5.00;99.90;;;;;;4978904;28;20039;-79
2023/03/15 08:48:52;;;;;;;2.80;1.40;;;5.00;99.90;;;;;;4984059;28;20047;-77
2023/03/15 08:51:20;;;;;;;3.28;1.40;;;5.00;99.90;;;;;;4979144;28;20042;-76
2023/03/15 08:53:47;;;;;;;2.20;1.40;;;5.10;99.90;;;;;;4981763;28;20043;-77
2023/03/15 08:56:14;;;;;;;1.85;1.45;;;5.10;99.90;;;;;;4978465;28;20057;-76
2023/03/15 08:58:41;;;;;;;2.17;1.42;;;5.20;99.90;;;;;;4982232;28;20526;-77
2023/03/15 09:01:10;;;;;;;3.38;1.48;;;5.20;99.90;;;;;;4977264;28;20058;-77
2023/03/15 09:03:37;;;;;;;1.75;1.40;;;5.30;99.90;;;;;;4987860;28;20434;-76
2023/03/15 09:06:05;;;;;;;2.78;0.98;;;5.30;99.90;;;;;;4980053;28;20434;-77
2023/03/15 09:08:32;;;;;;;2.92;1.40;;;5.30;99.90;;;;;;4981379;28;20046;-77
2023/03/15 09:11:00;;;;;;;2.22;1.83;;;5.40;99.90;;;;;;4977298;28;20043;-77
2023/03/15 09:13:27;;;;;;;1.25;1.17;;;5.40;99.90;;;;;;4981197;28;20426;-77
2023/03/15 09:15:55;;;;;;;2.17;1.42;;;5.50;99.90;;;;;;4984536;28;20395;-76
2023/03/15 09:18:23;;;;;;;2.08;1.50;;;5.50;99.90;;;;;;4985517;28;20590;-76
2023/03/15 09:20:49;;;;;;;1.55;1.40;;;5.50;99.90;;;;;;4983608;28;20061;-77
2023/03/15 09:23:16;;;;;;;1.45;1.25;;;5.60;99.90;;;;;;4978877;28;20047;-77
2023/03/15 09:25:42;;;;;;;1.67;1.05;;;5.60;99.90;;;;;;4979831;28;20057;-76
2023/03/15 09:28:10;;;;;;;2.10;1.20;;;5.60;99.90;;;;;;4983675;28;20065;-76
2023/03/15 09:30:38;;;;;;;1.67;1.20;;;5.70;99.90;;;;;;4985139;28;20137;-76
2023/03/15 09:33:06;;;;;;;1.92;1.40;;;5.70;99.90;;;;;;4986130;28;20122;-77
2023/03/15 09:35:33;;;;;;;1.73;1.23;;;5.80;99.90;;;;;;4978198;28;20414;-77
2023/03/15 09:37:59;;;;;;;2.63;1.77;;;5.80;99.90;;;;;;4983478;28;20065;-77
2023/03/15 09:40:29;;;;;;;3.55;1.88;;;5.90;99.90;;;;;;4978477;28;20055;-77
2023/03/15 09:43:03;;;;;;;3.03;1.40;;;5.90;99.90;;;;;;4986491;28;20481;-77
2023/03/15 09:45:45;;;;;;;2.33;1.58;;;5.90;99.90;;;;;;4980243;28;20046;-77
2023/03/15 09:48:34;;;;;;;3.30;1.63;;;6.00;99.90;;;;;;4981303;28;20043;-77
2023/03/15 09:51:08;;;;;;;2.05;1.25;;;6.00;99.90;;;;;;4983311;28;20055;-77
2023/03/15 09:53:59;;;;;;;1.55;1.13;;;6.10;99.90;;;;;;4983941;28;20513;-77
2023/03/15 09:56:32;;;;;;;1.80;1.23;;;6.10;99.90;;;;;;4977851;28;20123;-78
2023/03/15 09:59:03;;;;;;;2.15;1.42;;;6.10;99.90;;;;;;4984351;28;20049;-77
2023/03/15 10:01:40;;;;;;;1.38;1.25;;;6.20;99.90;;;;;;4982958;28;20138;-77
2023/03/15 10:04:22;;;;;;;1.23;1.00;;;6.20;99.90;;;;;;4982767;28;20053;-76
2023/03/15 10:06:54;;;;;;;1.45;0.90;;;6.30;99.90;;;;;;4984172;28;20042;-77
2023/03/15 10:09:23;;;;;;;4.68;1.45;;;6.30;99.90;;;;;;4985535;28;20053;-77
2023/03/15 10:12:02;;;;;;;1.52;1.20;;;6.40;99.90;;;;;;4980387;28;20046;-77
2023/03/15 10:14:48;;;;;;;1.77;1.17;;;6.40;99.90;;;;;;4978362;28;20593;-77
2023/03/15 10:17:28;;;;;;;1.98;0.88;;;6.50;99.90;;;;;;4994948;28;20057;-77
2023/03/15 10:20:05;;;;;;;1.45;0.90;;;6.50;99.90;;;;;;4980478;28;20526;-77
2023/03/15 10:23:00;;;;;;;1.75;1.10;;;6.60;99.90;;;;;;4979737;28;20051;-77
2023/03/15 10:25:32;;;;;;;1.00;0.85;;;6.60;99.90;;;;;;4988290;28;20536;-77
2023/03/15 10:28:12;;;;;;;3.20;1.02;;;6.70;99.90;;;;;;4986833;28;20050;-77
2023/03/15 10:30:45;;;;;;;1.17;0.80;;;6.80;99.90;;;;;;4982485;28;20082;-79
2023/03/15 10:33:35;;;;;;;2.55;0.80;;;6.90;99.90;;;;;;4979361;28;20130;-77
2023/03/15 10:36:15;;;;;;;3.55;0.80;;;6.90;99.90;;;;;;4979072;28;20050;-77
2023/03/15 10:38:42;;;;;;;3.27;1.10;;;7.00;99.90;;;;;;4980076;28;20054;-77
2023/03/15 10:41:12;;;;;;;2.70;1.08;;;7.00;99.90;;;;;;4987413;28;20051;-77
2023/03/15 10:44:06;;;;;;;4.00;1.20;;;7.00;99.90;;;;;;4989273;28;20051;-78
2023/03/15 10:46:34;;;;;;;1.90;1.10;;;6.90;99.90;;;;;;5001804;28;20054;-77
2023/03/15 10:49:15;;;;;;;1.83;0.70;;;7.00;99.90;;;;;;4985783;28;20042;-77
2023/03/15 10:51:47;;;;;;;1.60;0.82;;;7.00;99.90;;;;;;4988936;28;20055;-77
2023/03/15 10:54:15;;;;;;;0.47;0.40;;;7.00;99.90;;;;;;4988051;28;20121;-77
2023/03/15 10:56:51;;;;;;;1.33;0.52;;;7.00;99.90;;;;;;4986879;28;20482;-78
2023/03/15 10:59:23;;;;;;;3.00;0.77;;;7.10;99.90;;;;;;4982136;28;20515;-77
2023/03/15 11:01:52;;;;;;;1.85;0.60;;;7.00;99.90;;;;;;4983679;28;20082;-77
2023/03/15 11:04:20;;;;;;;2.03;0.80;;;7.10;99.90;;;;;;4983924;28;20056;-77
2023/03/15 11:06:56;;;;;;;0.73;0.47;;;7.10;99.90;;;;;;4989786;28;20054;-77
2023/03/15 11:09:25;;;;;;;1.30;0.70;;;7.10;99.90;;;;;;4989643;28;20051;-77
2023/03/15 11:11:58;;;;;;;2.60;0.68;;;7.20;99.90;;;;;;4984505;28;20042;-77
2023/03/15 11:14:47;;;;;;;2.67;1.00;;;7.20;99.90;;;;;;4978345;28;20558;-77
2023/03/15 11:17:30;;;;;;;2.13;0.65;;;7.30;99.90;;;;;;4984146;28;20049;-77
2023/03/15 11:20:09;;;;;;;1.90;0.80;;;7.40;99.90;;;;;;4982622;28;20043;-77
2023/03/15 11:22:36;;;;;;;0.70;0.50;;;7.40;99.90;;;;;;4984934;28;20137;-77
2023/03/15 11:25:03;;;;;;;0.40;0.40;;;7.50;99.90;;;;;;4985801;28;20065;-77
2023/03/15 11:27:30;;;;;;;3.40;0.65;;;7.60;99.90;;;;;;4982561;28;20057;-77
2023/03/15 11:29:59;;;;;;;1.42;0.60;;;7.70;99.90;;;;;;4982891;28;20054;-77
2023/03/15 11:32:28;;;;;;;3.50;0.70;;;7.70;99.90;;;;;;4979987;28;20042;-76
2023/03/15 11:35:13;;;;;;;3.03;0.70;;;7.70;99.90;;;;;;4982253;28;20503;-76
2023/03/15 11:38:00;;;;;;;2.53;0.60;;;7.70;99.90;;;;;;4983305;28;20501;-77
2023/03/15 11:40:44;;;;;;;0.55;0.50;;;7.70;99.90;;;;;;4981908;28;20525;-77
2023/03/15 11:43:24;;;;;;;0.55;0.50;;;7.70;99.90;;;;;;4980433;28;20141;-76
2023/03/15 11:45:57;;;;;;;;;;;7.70;99.90;;;;;;4982572;28;20153;-76
2023/03/15 11:48:51;;;;;;;0.68;0.68;;;7.70;99.90;;;;;;4981277;28;19930;-76
2023/03/15 11:51:18;;;;;;;1.25;0.60;;;7.80;99.90;;;;;;4990274;28;20549;-77
2023/03/15 11:54:00;;;;;;;0.65;0.55;;;7.80;99.90;;;;;;4984174;28;20164;-77
2023/03/15 11:56:43;;;;;;;0.80;0.60;;;7.80;99.90;;;;;;4982098;28;20053;-76
2023/03/15 11:59:14;;;;;;;1.50;0.80;;;7.90;99.90;;;;;;4986361;28;20078;-76
2023/03/15 12:01:48;;;;;;;0.77;0.60;;;8.00;99.90;;;;;;4986340;28;20094;-77
2023/03/15 12:04:24;;;;;;;0.55;0.55;;;8.10;99.90;;;;;;4988834;28;20047;-77
2023/03/15 12:06:55;;;;;;;0.90;0.50;;;8.30;99.90;;;;;;4982450;28;20101;-77
2023/03/15 12:09:31;;;;;;;2.05;0.70;;;8.40;99.90;;;;;;4987300;28;20051;-77
2023/03/15 12:12:20;;;;;;;1.67;0.70;;;8.40;99.90;;;;;;4988278;28;20074;-77
2023/03/15 12:14:47;;;;;;;0.98;0.50;;;8.50;99.90;;;;;;4981306;28;20043;-77
2023/03/15 12:17:22;;;;;;;0.90;0.60;;;8.50;99.90;;;;;;4986296;28;20072;-76
2023/03/15 12:20:11;;;;;;;1.13;0.73;;;8.50;99.90;;;;;;4993247;28;20046;-78
2023/03/15 12:23:12;;;;;;;1.35;0.77;;;8.60;99.90;;;;;;4985228;28;20060;-77
2023/03/15 12:25:53;;;;;;;0.80;0.60;;;8.60;99.90;;;;;;4986823;28;20047;-76
2023/03/15 12:28:34;;;;;;;1.10;0.70;;;8.70;99.90;;;;;;4981611;28;20042;-77
2023/03/15 12:31:03;;;;;;;;;;;8.80;99.90;;;;;;4982750;28;20086;-76
2023/03/15 12:33:31;;;;;;;1.80;0.75;;;8.80;99.90;;;;;;4979801;28;20012;-77
2023/03/15 12:36:01;;;;;;;1.00;0.70;;;8.90;99.90;;;;;;4978836;28;20050;-76
2023/03/15 12:38:40;;;;;;;1.52;0.80;;;8.90;99.90;;;;;;4980991;28;20042;-77
2023/03/15 12:41:28;;;;;;;1.23;0.70;;;9.00;99.90;;;;;;4978568;28;20057;-77
2023/03/15 12:44:20;;;;;;;1.02;0.50;;;9.10;99.90;;;;;;4978464;28;20050;-77
2023/03/15 12:46:47;;;;;;;2.35;0.70;;;9.20;99.90;;;;;;4984377;28;20051;-77
2023/03/15 12:49:22;;;;;;;1.65;0.60;;;9.30;99.90;;;;;;4981810;28;20050;-77
2023/03/15 12:51:55;;;;;;;0.95;0.50;;;9.40;99.90;;;;;;4982082;28;20050;-77
2023/03/15 12:54:33;;;;;;;0.90;0.52;;;9.50;99.90;;;;;;4982915;28;20043;-77
2023/03/15 12:57:03;;;;;;;0.52;0.30;;;9.60;99.90;;;;;;4981118;28;20538;-77
2023/03/15 12:59:40;;;;;;;0.82;0.50;;;9.70;99.90;;;;;;4986603;28;20053;-77
2023/03/15 13:02:24;;;;;;;1.13;0.80;;;9.80;99.90;;;;;;4978713;28;20050;-77
2023/03/15 13:05:18;;;;;;;1.67;0.55;;;9.80;99.90;;;;;;4986216;28;20047;-77
2023/03/15 13:07:56;;;;;;;2.42;0.60;;;9.90;99.90;;;;;;4979956;28;20101;-78
2023/03/15 13:10:38;;;;;;;1.15;0.50;;;9.90;99.90;;;;;;4983834;28;20126;-77
2023/03/15 13:13:16;;;;;;;0.77;0.57;;;9.90;99.90;;;;;;4978560;28;20052;-77